createdAt,value
2022-12-15T00:00:50.217Z,44.60
2022-12-15T00:01:50.168Z,41.00
2022-12-15T00:02:50.273Z,43.30
2022-12-15T00:03:50.267Z,45.90
2022-12-15T00:04:50.114Z,43.00
2022-12-15T00:05:50.430Z,45.60
2022-12-15T00:06:50.164Z,41.40
2022-12-15T00:07:50.105Z,45.00
2022-12-15T00:08:50.060Z,43.90
2022-12-15T00:09:50.061Z,47.30
2022-12-15T00:10:50.068Z,43.60
2022-12-15T00:11:50.041Z,46.70
2022-12-15T00:12:50.005Z,46.70
2022-12-15T00:13:50.006Z,47.60
2022-12-15T00:14:49.971Z,44.90
2022-12-15T00:15:50.128Z,43.70
2022-12-15T00:16:49.945Z,46.40
2022-12-15T00:17:49.977Z,45.50
2022-12-15T00:18:49.934Z,47.40
2022-12-15T00:19:49.928Z,44.90
2022-12-15T00:20:49.921Z,47.10
2022-12-15T00:21:49.930Z,46.60
2022-12-15T00:22:49.877Z,46.10
2022-12-15T00:23:49.881Z,47.00
2022-12-15T00:24:50.036Z,43.90
2022-12-15T00:25:49.861Z,43.80
2022-12-15T00:26:49.824Z,41.50
2022-12-15T00:27:49.839Z,46.40
2022-12-15T00:28:49.815Z,45.60
2022-12-15T00:29:49.824Z,45.80
2022-12-15T00:30:50.400Z,43.70
2022-12-15T00:31:49.880Z,42.20
2022-12-15T00:32:49.755Z,46.30
2022-12-15T00:33:49.757Z,45.30
2022-12-15T00:34:49.717Z,44.80
2022-12-15T00:35:49.705Z,41.10
2022-12-15T00:36:49.969Z,45.40
2022-12-15T00:37:49.687Z,44.70
2022-12-15T00:38:49.727Z,46.20
2022-12-15T00:39:49.666Z,44.20
2022-12-15T00:40:49.670Z,47.40
2022-12-15T00:41:49.647Z,45.30
2022-12-15T00:42:49.836Z,45.90
2022-12-15T00:43:49.646Z,45.10
2022-12-15T00:44:49.621Z,49.30
2022-12-15T00:45:49.571Z,47.10
2022-12-15T00:46:49.687Z,44.00
2022-12-15T00:47:49.568Z,49.60
2022-12-15T00:48:49.590Z,45.20
2022-12-15T00:49:49.559Z,45.20
2022-12-15T00:50:49.567Z,45.80
2022-12-15T00:51:49.501Z,45.00
2022-12-15T00:52:49.560Z,44.70
2022-12-15T00:53:49.479Z,48.70
2022-12-15T00:54:49.523Z,48.30
2022-12-15T00:55:49.455Z,48.90
2022-12-15T00:56:49.472Z,43.80
2022-12-15T00:57:49.437Z,43.00
2022-12-15T00:58:49.430Z,47.10
2022-12-15T00:59:49.411Z,46.70
2022-12-15T01:00:49.462Z,43.80
2022-12-15T01:01:49.790Z,45.60
2022-12-15T01:02:49.674Z,42.80
2022-12-15T01:03:49.445Z,41.30
2022-12-15T01:04:49.357Z,46.20
2022-12-15T01:05:49.339Z,44.30
2022-12-15T01:06:49.331Z,44.10
2022-12-15T01:07:49.550Z,47.80
2022-12-15T01:08:49.313Z,47.20
2022-12-15T01:09:49.298Z,45.90
2022-12-15T01:10:49.298Z,48.20
2022-12-15T01:11:49.243Z,45.90
2022-12-15T01:12:49.285Z,46.50
2022-12-15T01:13:49.836Z,45.60
2022-12-15T01:14:49.235Z,47.90
2022-12-15T01:15:49.219Z,45.90
2022-12-15T01:16:49.203Z,46.10
2022-12-15T01:17:49.199Z,46.70
2022-12-15T01:18:49.609Z,47.40
2022-12-15T01:19:49.162Z,44.90
2022-12-15T01:20:49.187Z,43.80
2022-12-15T01:21:49.121Z,42.70
2022-12-15T01:22:49.161Z,41.10
2022-12-15T01:23:49.108Z,47.00
2022-12-15T01:24:49.115Z,46.90
2022-12-15T01:25:49.488Z,45.70
2022-12-15T01:26:49.090Z,44.30
2022-12-15T01:27:49.042Z,45.00
2022-12-15T01:28:49.079Z,47.90
2022-12-15T01:29:49.032Z,49.30
2022-12-15T01:30:49.029Z,46.90
2022-12-15T01:31:49.937Z,47.50
2022-12-15T01:32:49.020Z,46.10
2022-12-15T01:33:49.002Z,46.60
2022-12-15T01:34:48.980Z,49.10
2022-12-15T01:35:48.939Z,47.00
2022-12-15T01:36:48.960Z,47.00
2022-12-15T01:37:50.368Z,46.90
2022-12-15T01:38:53.846Z,42.70
2022-12-15T01:39:48.940Z,47.30
2022-12-15T01:40:48.901Z,47.50
2022-12-15T01:41:48.891Z,46.60
2022-12-15T01:42:48.883Z,47.30
2022-12-15T01:43:49.786Z,49.20
2022-12-15T01:44:48.870Z,47.50
2022-12-15T01:45:48.816Z,49.20
2022-12-15T01:46:48.930Z,51.30
2022-12-15T01:47:48.786Z,46.20
2022-12-15T01:48:48.802Z,48.00
2022-12-15T01:49:49.293Z,46.40
2022-12-15T01:50:48.771Z,42.80
2022-12-15T01:51:48.770Z,46.50
2022-12-15T01:52:49.711Z,44.30
2022-12-15T01:53:50.179Z,43.60
2022-12-15T01:54:48.751Z,45.30
2022-12-15T01:55:49.892Z,46.50
2022-12-15T01:56:48.717Z,45.90
2022-12-15T01:57:48.657Z,49.00
2022-12-15T01:58:48.688Z,48.90
2022-12-15T01:59:48.632Z,45.60
2022-12-15T02:00:48.681Z,44.00
2022-12-15T02:01:49.990Z,45.60
2022-12-15T02:02:48.718Z,46.40
2022-12-15T02:03:48.593Z,46.40
2022-12-15T02:04:48.600Z,44.80
2022-12-15T02:05:48.569Z,44.60
2022-12-15T02:06:48.572Z,45.20
2022-12-15T02:07:48.569Z,45.10
2022-12-15T02:08:48.539Z,49.60
2022-12-15T02:09:48.527Z,45.40
2022-12-15T02:10:48.518Z,47.70
2022-12-15T02:11:48.494Z,48.30
2022-12-15T02:12:48.514Z,46.40
2022-12-15T02:13:49.671Z,47.50
2022-12-15T02:14:48.486Z,45.70
2022-12-15T02:15:48.434Z,48.60
2022-12-15T02:16:48.534Z,49.10
2022-12-15T02:17:48.429Z,47.20
2022-12-15T02:18:48.416Z,49.80
2022-12-15T02:19:48.382Z,46.80
2022-12-15T02:20:48.401Z,47.00
2022-12-15T02:21:48.351Z,47.50
2022-12-15T02:22:48.395Z,49.50
2022-12-15T02:23:48.339Z,47.30
2022-12-15T02:24:49.743Z,45.20
2022-12-15T02:25:50.713Z,47.20
2022-12-15T02:26:48.319Z,45.80
2022-12-15T02:27:48.272Z,46.20
2022-12-15T02:28:48.295Z,45.90
2022-12-15T02:29:48.270Z,45.00
2022-12-15T02:30:48.271Z,45.20
2022-12-15T02:31:50.009Z,47.70
2022-12-15T02:32:48.274Z,46.00
2022-12-15T02:33:48.208Z,48.30
2022-12-15T02:34:48.226Z,45.60
2022-12-15T02:35:48.179Z,47.70
2022-12-15T02:36:48.192Z,46.00
2022-12-15T02:37:49.721Z,46.10
2022-12-15T02:38:48.195Z,47.10
2022-12-15T02:39:48.153Z,45.00
2022-12-15T02:40:48.146Z,46.90
2022-12-15T02:41:48.100Z,47.40
2022-12-15T02:42:48.125Z,46.10
2022-12-15T02:43:48.068Z,45.70
2022-12-15T02:44:48.120Z,43.70
2022-12-15T02:45:48.121Z,49.50
2022-12-15T02:46:48.065Z,47.40
2022-12-15T02:47:48.022Z,43.20
2022-12-15T02:48:48.031Z,44.50
2022-12-15T02:49:49.912Z,49.40
2022-12-15T02:50:48.017Z,45.80
2022-12-15T02:51:47.987Z,46.00
2022-12-15T02:52:47.981Z,44.50
2022-12-15T02:53:47.942Z,43.70
2022-12-15T02:54:47.961Z,42.40
2022-12-15T02:55:47.955Z,44.60
2022-12-15T02:56:47.923Z,42.80
2022-12-15T02:57:47.893Z,41.60
2022-12-15T02:58:47.909Z,47.60
2022-12-15T02:59:47.891Z,47.30
2022-12-15T03:00:47.970Z,44.80
2022-12-15T03:01:48.085Z,42.30
2022-12-15T03:02:48.031Z,42.90
2022-12-15T03:03:47.828Z,42.30
2022-12-15T03:04:47.831Z,43.50
2022-12-15T03:05:47.779Z,45.80
2022-12-15T03:06:47.833Z,44.70
2022-12-15T03:07:49.584Z,44.00
2022-12-15T03:08:47.782Z,44.00
2022-12-15T03:09:47.760Z,43.60
2022-12-15T03:10:47.753Z,45.30
2022-12-15T03:11:47.744Z,43.90
2022-12-15T03:12:47.745Z,43.90
2022-12-15T03:13:47.697Z,42.40
2022-12-15T03:14:47.700Z,44.20
2022-12-15T03:15:47.667Z,50.00
2022-12-15T03:16:47.803Z,43.30
2022-12-15T03:17:47.676Z,43.70
2022-12-15T03:18:47.646Z,46.50
2022-12-15T03:19:50.019Z,46.30
2022-12-15T03:20:47.616Z,43.40
2022-12-15T03:21:47.589Z,46.40
2022-12-15T03:22:47.637Z,44.10
2022-12-15T03:23:47.564Z,47.70
2022-12-15T03:24:47.601Z,46.70
2022-12-15T03:25:49.867Z,47.70
2022-12-15T03:26:47.602Z,44.90
2022-12-15T03:27:47.527Z,48.40
2022-12-15T03:28:47.544Z,44.90
2022-12-15T03:29:47.489Z,47.20
2022-12-15T03:30:50.405Z,43.10
2022-12-15T03:31:49.945Z,47.40
2022-12-15T03:32:47.477Z,48.90
2022-12-15T03:33:47.472Z,44.40
2022-12-15T03:34:47.480Z,45.50
2022-12-15T03:35:47.477Z,47.10
2022-12-15T03:36:47.414Z,43.90
2022-12-15T03:37:47.407Z,42.90
2022-12-15T03:38:47.404Z,45.80
2022-12-15T03:39:47.385Z,43.80
2022-12-15T03:40:47.368Z,45.10
2022-12-15T03:41:47.352Z,44.30
2022-12-15T03:42:47.357Z,43.70
2022-12-15T03:43:49.667Z,48.10
2022-12-15T03:44:47.321Z,48.60
2022-12-15T03:45:47.351Z,46.10
2022-12-15T03:46:47.295Z,47.60
2022-12-15T03:47:47.260Z,45.90
2022-12-15T03:48:47.281Z,45.50
2022-12-15T03:49:47.234Z,44.40
2022-12-15T03:50:47.240Z,50.50
2022-12-15T03:51:47.235Z,48.30
2022-12-15T03:52:47.217Z,50.80
2022-12-15T03:53:47.183Z,50.30
2022-12-15T03:54:47.220Z,49.00
2022-12-15T03:55:47.161Z,48.60
2022-12-15T03:56:47.172Z,51.80
2022-12-15T03:57:47.134Z,52.00
2022-12-15T03:58:47.187Z,49.90
2022-12-15T03:59:47.105Z,51.30
2022-12-15T04:00:47.124Z,48.60
2022-12-15T04:01:47.223Z,51.20
2022-12-15T04:02:47.209Z,52.20
2022-12-15T04:03:47.135Z,51.60
2022-12-15T04:04:47.059Z,56.90
2022-12-15T04:05:47.026Z,52.60
2022-12-15T04:06:47.044Z,55.50
2022-12-15T04:07:47.012Z,51.50
2022-12-15T04:08:47.057Z,51.40
2022-12-15T04:09:46.990Z,54.60
2022-12-15T04:10:46.988Z,52.90
2022-12-15T04:11:46.957Z,55.60
2022-12-15T04:12:46.977Z,51.50
2022-12-15T04:13:46.952Z,51.70
2022-12-15T04:14:46.970Z,51.10
2022-12-15T04:15:46.899Z,50.30
2022-12-15T04:16:47.022Z,54.90
2022-12-15T04:17:46.895Z,51.80
2022-12-15T04:18:46.899Z,53.00
2022-12-15T04:19:46.884Z,53.00
2022-12-15T04:20:46.871Z,49.20
2022-12-15T04:21:46.836Z,52.30
2022-12-15T04:22:46.837Z,50.10
2022-12-15T04:23:46.820Z,50.30
2022-12-15T04:24:46.803Z,52.40
2022-12-15T04:25:46.781Z,50.70
2022-12-15T04:26:46.801Z,51.00
2022-12-15T04:27:46.763Z,53.10
2022-12-15T04:28:46.739Z,49.20
2022-12-15T04:29:46.764Z,52.40
2022-12-15T04:30:46.795Z,51.60
2022-12-15T04:31:46.756Z,47.20
2022-12-15T04:32:50.007Z,53.20
2022-12-15T04:33:46.711Z,54.70
2022-12-15T04:34:46.676Z,50.90
2022-12-15T04:35:49.871Z,48.90
2022-12-15T04:36:46.631Z,53.00
2022-12-15T04:37:46.687Z,52.70
2022-12-15T04:38:50.387Z,52.10
2022-12-15T04:39:46.626Z,54.30
2022-12-15T04:40:46.584Z,54.20
2022-12-15T04:41:46.593Z,53.10
2022-12-15T04:42:46.587Z,52.60
2022-12-15T04:43:46.570Z,51.10
2022-12-15T04:44:46.642Z,53.00
2022-12-15T04:45:46.553Z,56.90
2022-12-15T04:46:46.515Z,56.90
2022-12-15T04:47:46.547Z,55.60
2022-12-15T04:48:46.487Z,58.60
2022-12-15T04:49:46.494Z,56.50
2022-12-15T04:50:46.469Z,58.40
2022-12-15T04:51:46.480Z,60.50
2022-12-15T04:52:46.462Z,62.70
2022-12-15T04:53:46.465Z,63.90
2022-12-15T04:54:46.405Z,63.80
2022-12-15T04:55:46.435Z,64.10
2022-12-15T04:56:46.386Z,63.70
2022-12-15T04:57:46.410Z,63.60
2022-12-15T04:58:46.364Z,65.00
2022-12-15T04:59:46.401Z,60.50
2022-12-15T05:00:46.329Z,62.20
2022-12-15T05:01:46.520Z,57.70
2022-12-15T05:02:46.359Z,55.20
2022-12-15T05:03:46.316Z,61.90
2022-12-15T05:04:46.388Z,58.60
2022-12-15T05:05:46.295Z,62.60
2022-12-15T05:06:46.261Z,67.50
2022-12-15T05:07:46.272Z,64.50
2022-12-15T05:08:46.227Z,66.70
2022-12-15T05:09:46.241Z,71.20
2022-12-15T05:10:46.228Z,68.00
2022-12-15T05:11:46.212Z,73.20
2022-12-15T05:12:46.179Z,70.10
2022-12-15T05:13:46.185Z,64.80
2022-12-15T05:14:46.186Z,70.40
2022-12-15T05:15:46.233Z,66.70
2022-12-15T05:16:46.167Z,67.00
2022-12-15T05:17:46.203Z,68.70
2022-12-15T05:18:46.103Z,65.50
2022-12-15T05:19:46.125Z,69.90
2022-12-15T05:20:46.074Z,64.00
2022-12-15T05:21:46.106Z,68.40
2022-12-15T05:22:46.074Z,66.50
2022-12-15T05:23:46.080Z,67.40
2022-12-15T05:24:46.054Z,70.00
2022-12-15T05:25:46.044Z,65.30
2022-12-15T05:26:52.112Z,69.10
2022-12-15T05:27:46.020Z,65.60
2022-12-15T05:28:45.991Z,66.50
2022-12-15T05:29:46.004Z,65.10
2022-12-15T05:30:45.974Z,66.40
2022-12-15T05:31:45.981Z,67.30
2022-12-15T05:32:45.959Z,65.70
2022-12-15T05:33:45.929Z,66.40
2022-12-15T05:34:45.898Z,64.90
2022-12-15T05:35:45.925Z,64.80
2022-12-15T05:36:45.877Z,66.60
2022-12-15T05:37:45.907Z,63.50
2022-12-15T05:38:45.856Z,65.10
2022-12-15T05:39:45.910Z,65.10
2022-12-15T05:40:45.836Z,66.70
2022-12-15T05:41:45.826Z,65.00
2022-12-15T05:42:49.945Z,65.60
2022-12-15T05:43:45.804Z,67.80
2022-12-15T05:44:45.763Z,64.70
2022-12-15T05:45:45.781Z,62.30
2022-12-15T05:46:45.855Z,61.40
2022-12-15T05:47:45.784Z,60.80
2022-12-15T05:48:45.730Z,60.10
2022-12-15T05:49:45.740Z,62.00
2022-12-15T05:50:45.854Z,59.20
2022-12-15T05:51:45.741Z,59.70
2022-12-15T05:52:49.301Z,57.00
2022-12-15T05:53:45.700Z,61.90
2022-12-15T05:54:45.674Z,59.40
2022-12-15T05:55:45.662Z,59.30
2022-12-15T05:56:45.693Z,62.70
2022-12-15T05:57:45.661Z,56.40
2022-12-15T05:58:45.869Z,62.30
2022-12-15T05:59:45.660Z,61.70
2022-12-15T06:00:45.580Z,62.40
2022-12-15T06:01:45.622Z,62.90
2022-12-15T06:02:45.592Z,55.80
2022-12-15T06:03:45.581Z,65.10
2022-12-15T06:04:45.595Z,60.50
2022-12-15T06:05:45.534Z,58.30
2022-12-15T06:06:45.503Z,61.00
2022-12-15T06:07:45.527Z,70.50
2022-12-15T06:08:45.466Z,59.20
2022-12-15T06:09:45.488Z,61.50
2022-12-15T06:10:45.441Z,60.90
2022-12-15T06:11:45.464Z,62.40
2022-12-15T06:12:45.446Z,62.60
2022-12-15T06:13:45.442Z,65.50
2022-12-15T06:14:45.391Z,63.60
2022-12-15T06:15:45.450Z,70.70
2022-12-15T06:16:50.760Z,65.40
2022-12-15T06:17:45.394Z,65.70
2022-12-15T06:18:49.916Z,62.00
2022-12-15T06:19:45.346Z,67.40
2022-12-15T06:20:45.309Z,67.90
2022-12-15T06:21:45.387Z,67.50
2022-12-15T06:22:49.718Z,66.20
2022-12-15T06:23:45.334Z,67.50
2022-12-15T06:24:45.276Z,63.10
2022-12-15T06:25:45.264Z,62.50
2022-12-15T06:26:45.262Z,62.20
2022-12-15T06:27:45.250Z,64.80
2022-12-15T06:28:45.223Z,66.60
2022-12-15T06:29:45.269Z,66.30
2022-12-15T06:30:45.184Z,60.50
2022-12-15T06:31:45.258Z,62.10
2022-12-15T06:32:45.167Z,65.20
2022-12-15T06:33:45.173Z,68.70
2022-12-15T06:34:45.156Z,61.70
2022-12-15T06:35:45.147Z,72.40
2022-12-15T06:36:45.114Z,68.10
2022-12-15T06:37:45.152Z,68.80
2022-12-15T06:38:45.101Z,65.40
2022-12-15T06:39:45.121Z,69.50
2022-12-15T06:40:45.058Z,69.10
2022-12-15T06:41:45.067Z,66.10
2022-12-15T06:42:45.035Z,66.90
2022-12-15T06:43:45.066Z,65.70
2022-12-15T06:44:45.032Z,62.10
2022-12-15T06:45:45.052Z,73.40
2022-12-15T06:46:45.050Z,69.60
2022-12-15T06:47:45.015Z,69.30
2022-12-15T06:48:44.979Z,70.30
2022-12-15T06:49:44.971Z,69.70
2022-12-15T06:50:44.934Z,70.30
2022-12-15T06:51:45.149Z,64.20
2022-12-15T06:52:44.915Z,65.50
2022-12-15T06:53:44.933Z,66.00
2022-12-15T06:54:44.884Z,66.80
2022-12-15T06:55:45.038Z,71.60
2022-12-15T06:56:44.869Z,65.20
2022-12-15T06:57:44.877Z,67.20
2022-12-15T06:58:44.833Z,71.00
2022-12-15T06:59:44.864Z,65.50
2022-12-15T07:00:44.805Z,67.50
2022-12-15T07:01:45.065Z,68.40
2022-12-15T07:02:45.125Z,63.20
2022-12-15T07:03:45.174Z,70.10
2022-12-15T07:04:44.763Z,64.90
2022-12-15T07:05:44.787Z,65.50
2022-12-15T07:06:44.767Z,63.50
2022-12-15T07:07:44.735Z,65.00
2022-12-15T07:08:44.726Z,63.50
2022-12-15T07:09:44.728Z,65.90
2022-12-15T07:10:44.680Z,59.10
2022-12-15T07:11:44.718Z,63.60
2022-12-15T07:12:44.657Z,60.60
2022-12-15T07:13:44.673Z,61.90
2022-12-15T07:14:48.787Z,64.60
2022-12-15T07:15:44.729Z,63.70
2022-12-15T07:16:44.697Z,67.70
2022-12-15T07:17:44.615Z,68.80
2022-12-15T07:18:44.587Z,61.80
2022-12-15T07:19:44.591Z,61.20
2022-12-15T07:20:44.547Z,63.30
2022-12-15T07:21:44.611Z,65.40
2022-12-15T07:22:44.543Z,65.20
2022-12-15T07:24:00.816Z,65.40
2022-12-15T07:24:44.552Z,64.10
2022-12-15T07:25:44.482Z,65.90
2022-12-15T07:26:44.548Z,60.60
2022-12-15T07:27:44.495Z,66.20
2022-12-15T07:28:44.494Z,62.60
2022-12-15T07:29:44.433Z,63.60
2022-12-15T07:30:44.477Z,61.30
2022-12-15T07:31:44.548Z,59.40
2022-12-15T07:32:50.058Z,66.00
2022-12-15T07:33:44.398Z,58.90
2022-12-15T07:34:44.423Z,59.50
2022-12-15T07:35:44.365Z,62.20
2022-12-15T07:36:49.984Z,59.00
2022-12-15T07:37:44.375Z,63.10
2022-12-15T07:38:44.345Z,62.30
2022-12-15T07:39:44.328Z,60.10
2022-12-15T07:40:44.347Z,61.50
2022-12-15T07:41:44.296Z,60.40
2022-12-15T07:42:44.313Z,59.80
2022-12-15T07:43:44.274Z,60.10
2022-12-15T07:44:44.305Z,59.90
2022-12-15T07:45:49.775Z,56.90
2022-12-15T07:46:44.275Z,53.80
2022-12-15T07:47:44.216Z,56.80
2022-12-15T07:48:44.233Z,57.10
2022-12-15T07:49:44.189Z,58.10
2022-12-15T07:50:44.193Z,58.50
2022-12-15T07:51:44.180Z,58.40
2022-12-15T07:52:44.177Z,57.60
2022-12-15T07:53:44.147Z,59.50
2022-12-15T07:54:44.199Z,59.20
2022-12-15T07:56:06.102Z,60.70
2022-12-15T07:56:44.172Z,57.50
2022-12-15T07:57:44.117Z,58.90
2022-12-15T07:58:44.120Z,61.10
2022-12-15T07:59:44.079Z,56.00
2022-12-15T08:00:48.763Z,55.00
2022-12-15T08:01:44.269Z,58.70
2022-12-15T08:02:44.314Z,56.60
2022-12-15T08:03:44.060Z,55.70
2022-12-15T08:04:44.022Z,58.80
2022-12-15T08:05:43.975Z,59.00
2022-12-15T08:06:44.046Z,61.20
2022-12-15T08:07:43.961Z,58.40
2022-12-15T08:08:43.956Z,51.50
2022-12-15T08:09:43.932Z,57.70
2022-12-15T08:10:43.930Z,56.50
2022-12-15T08:11:43.900Z,59.70
2022-12-15T08:12:43.974Z,56.50
2022-12-15T08:14:43.895Z,57.60
2022-12-15T08:15:43.888Z,54.00
2022-12-15T08:16:43.995Z,58.50
2022-12-15T08:17:43.841Z,56.10
2022-12-15T08:18:43.833Z,57.60
2022-12-15T08:19:43.807Z,60.60
2022-12-15T08:20:43.805Z,56.70
2022-12-15T08:21:43.794Z,52.60
2022-12-15T08:22:43.782Z,53.90
2022-12-15T08:23:43.736Z,54.60
2022-12-15T08:24:43.789Z,57.50
2022-12-15T08:25:43.794Z,53.10
2022-12-15T08:26:43.771Z,56.70
2022-12-15T08:27:43.704Z,56.60
2022-12-15T08:28:43.712Z,54.00
2022-12-15T08:29:52.205Z,60.90
2022-12-15T08:30:43.689Z,55.60
2022-12-15T08:31:43.743Z,58.40
2022-12-15T08:32:47.301Z,54.50
2022-12-15T08:33:43.636Z,55.60
2022-12-15T08:34:43.633Z,54.20
2022-12-15T08:35:56.513Z,56.90
2022-12-15T08:36:43.621Z,52.90
2022-12-15T08:37:43.602Z,56.10
2022-12-15T08:38:43.603Z,54.00
2022-12-15T08:39:43.558Z,55.80
2022-12-15T08:40:43.568Z,53.90
2022-12-15T08:41:43.540Z,56.50
2022-12-15T08:42:43.528Z,53.00
2022-12-15T08:43:48.512Z,53.40
2022-12-15T08:44:43.510Z,55.50
2022-12-15T08:45:43.512Z,52.80
2022-12-15T08:46:43.472Z,51.50
2022-12-15T08:47:43.425Z,54.10
2022-12-15T08:48:43.484Z,55.30
2022-12-15T08:49:43.452Z,57.50
2022-12-15T08:50:43.433Z,57.50
2022-12-15T08:51:43.397Z,59.80
2022-12-15T08:53:00.681Z,54.80
2022-12-15T08:53:43.777Z,54.10
2022-12-15T08:54:43.372Z,54.80
2022-12-15T08:55:43.369Z,52.60
2022-12-15T08:56:43.348Z,51.10
2022-12-15T08:57:43.326Z,56.60
2022-12-15T08:58:43.332Z,55.20
2022-12-15T08:59:43.299Z,52.00
2022-12-15T09:00:43.313Z,52.10
2022-12-15T09:01:43.415Z,53.10
2022-12-15T09:02:43.298Z,55.80
2022-12-15T09:03:43.245Z,49.50
2022-12-15T09:04:43.306Z,54.90
2022-12-15T09:05:43.232Z,52.00
2022-12-15T09:06:43.226Z,53.20
2022-12-15T09:07:43.192Z,49.90
2022-12-15T09:08:43.200Z,55.70
2022-12-15T09:09:43.164Z,50.40
2022-12-15T09:10:43.206Z,47.70
2022-12-15T09:11:43.139Z,49.20
2022-12-15T09:12:43.167Z,48.00
2022-12-15T09:13:43.114Z,51.00
2022-12-15T09:14:43.158Z,51.80
2022-12-15T09:16:08.395Z,52.00
2022-12-15T09:16:43.127Z,49.20
2022-12-15T09:17:43.061Z,52.00
2022-12-15T09:18:43.093Z,51.90
2022-12-15T09:19:43.041Z,50.10
2022-12-15T09:20:43.085Z,48.80
2022-12-15T09:21:43.007Z,51.70
2022-12-15T09:22:43.051Z,49.80
2022-12-15T09:23:43.022Z,50.70
2022-12-15T09:24:42.994Z,50.40
2022-12-15T09:25:42.950Z,49.90
2022-12-15T09:26:43.004Z,47.60
2022-12-15T09:27:42.964Z,50.70
2022-12-15T09:28:43.002Z,49.50
2022-12-15T09:29:42.934Z,49.70
2022-12-15T09:30:42.939Z,49.80
2022-12-15T09:31:42.892Z,48.00
2022-12-15T09:32:42.909Z,48.80
2022-12-15T09:33:42.849Z,51.70
2022-12-15T09:34:42.859Z,48.30
2022-12-15T09:35:42.826Z,49.20
2022-12-15T09:36:42.884Z,52.80
2022-12-15T09:37:47.047Z,49.20
2022-12-15T09:38:42.853Z,50.90
2022-12-15T09:39:42.829Z,49.60
2022-12-15T09:40:42.792Z,47.90
2022-12-15T09:41:42.763Z,49.50
2022-12-15T09:42:42.749Z,51.20
2022-12-15T09:43:47.099Z,48.90
2022-12-15T09:44:42.763Z,48.90
2022-12-15T09:45:42.811Z,49.50
2022-12-15T09:46:42.750Z,51.30
2022-12-15T09:47:42.678Z,50.70
2022-12-15T09:48:42.687Z,50.60
2022-12-15T09:49:42.675Z,49.20
2022-12-15T09:50:42.676Z,46.90
2022-12-15T09:51:42.641Z,50.30
2022-12-15T09:52:42.620Z,52.00
2022-12-15T09:53:54.640Z,52.10
2022-12-15T09:54:42.721Z,51.10
2022-12-15T09:55:42.575Z,51.30
2022-12-15T09:56:42.591Z,50.90
2022-12-15T09:57:42.545Z,48.80
2022-12-15T09:58:42.621Z,52.30
2022-12-15T09:59:42.534Z,50.80
2022-12-15T10:00:44.527Z,55.70
2022-12-15T10:01:42.571Z,53.50
2022-12-15T10:02:42.610Z,51.00
2022-12-15T10:03:42.716Z,50.00
2022-12-15T10:04:42.489Z,53.00
2022-12-15T10:06:15.527Z,55.20
2022-12-15T10:06:42.464Z,54.30
2022-12-15T10:07:42.434Z,55.00
2022-12-15T10:08:42.454Z,53.60
2022-12-15T10:09:42.397Z,54.70
2022-12-15T10:10:42.438Z,53.30
2022-12-15T10:11:42.376Z,49.70
2022-12-15T15:03:04.236Z,56.50
2022-12-15T15:03:19.010Z,52.80
2022-12-15T15:03:25.001Z,54.20
2022-12-15T15:04:24.699Z,92.50
2022-12-15T15:05:24.708Z,95.20
2022-12-15T15:06:24.733Z,92.70
2022-12-15T15:07:24.635Z,94.70
2022-12-15T15:08:24.639Z,88.90
2022-12-15T15:09:24.602Z,89.00
2022-12-15T15:10:24.621Z,85.40
2022-12-15T15:11:24.568Z,87.40
2022-12-15T15:12:24.621Z,88.10
2022-12-15T15:13:24.540Z,89.20
2022-12-15T15:14:24.546Z,93.80
2022-12-15T15:15:24.520Z,87.90
2022-12-15T15:16:24.624Z,93.70
2022-12-15T15:17:24.517Z,87.70
2022-12-15T15:18:24.618Z,91.20
2022-12-15T15:19:24.473Z,88.00
2022-12-15T15:20:24.478Z,88.20
2022-12-15T15:21:24.441Z,87.90
2022-12-15T15:22:24.480Z,89.80
2022-12-15T15:23:24.442Z,90.60
2022-12-15T15:24:24.434Z,84.90
2022-12-15T15:25:24.382Z,87.70
2022-12-15T15:26:24.422Z,88.20
2022-12-15T15:27:24.477Z,87.60
2022-12-15T15:28:24.387Z,84.00
2022-12-15T15:29:24.357Z,90.50
2022-12-15T15:30:24.480Z,83.70
2022-12-15T15:31:24.457Z,88.00
2022-12-15T15:32:24.408Z,91.10
2022-12-15T15:33:24.371Z,92.10
2022-12-15T15:34:24.335Z,92.70
2022-12-15T15:35:24.299Z,94.40
2022-12-15T15:36:24.270Z,86.50
2022-12-15T15:37:24.246Z,85.90
2022-12-15T15:38:24.283Z,86.40
2022-12-15T15:39:24.222Z,87.30
2022-12-15T15:40:24.280Z,90.60
2022-12-15T15:41:24.223Z,88.30
2022-12-15T15:42:29.259Z,88.70
2022-12-15T15:43:24.236Z,93.80
2022-12-15T15:44:24.218Z,91.60
2022-12-15T15:45:24.137Z,92.40
2022-12-15T15:46:24.216Z,91.60
2022-12-15T15:47:24.139Z,90.60
2022-12-15T15:48:24.125Z,92.40
2022-12-15T15:49:24.114Z,92.40
2022-12-15T15:50:24.123Z,89.70
2022-12-15T15:51:24.072Z,88.30
2022-12-15T15:52:24.077Z,93.80
2022-12-15T15:53:24.067Z,93.10
2022-12-15T15:54:24.049Z,97.70
2022-12-15T15:55:24.024Z,89.50
2022-12-15T15:56:24.061Z,93.80
2022-12-15T15:57:24.009Z,93.00
2022-12-15T15:58:24.007Z,91.80
2022-12-15T15:59:23.971Z,96.20
2022-12-15T16:00:23.978Z,93.20
2022-12-15T16:01:24.198Z,89.40
2022-12-15T16:02:24.163Z,88.50
2022-12-15T16:03:24.279Z,93.00
2022-12-15T16:04:23.972Z,89.20
2022-12-15T16:05:23.889Z,90.90
2022-12-15T16:06:23.908Z,93.50
2022-12-15T16:07:23.860Z,94.40
2022-12-15T16:08:23.873Z,92.50
2022-12-15T16:09:23.851Z,94.70
2022-12-15T16:10:23.851Z,94.30
2022-12-15T16:11:23.799Z,92.30
2022-12-15T16:12:23.827Z,89.20
2022-12-15T16:13:26.246Z,96.50
2022-12-15T16:14:23.781Z,94.20
2022-12-15T16:15:23.798Z,90.00
2022-12-15T16:16:23.810Z,94.70
2022-12-15T16:17:23.760Z,86.80
2022-12-15T16:18:23.730Z,93.30
2022-12-15T16:19:23.718Z,90.70
2022-12-15T16:20:23.725Z,89.50
2022-12-15T16:21:23.683Z,96.00
2022-12-15T16:22:23.688Z,93.70
2022-12-15T16:23:23.664Z,88.80
2022-12-15T16:24:23.671Z,89.10
2022-12-15T16:25:23.636Z,93.10
2022-12-15T16:26:23.664Z,84.50
2022-12-15T16:27:23.629Z,92.60
2022-12-15T16:28:23.589Z,93.40
2022-12-15T16:29:23.617Z,90.20
2022-12-15T16:30:23.569Z,94.50
2022-12-15T16:31:23.651Z,92.50
2022-12-15T16:32:23.581Z,94.20
2022-12-15T16:33:23.599Z,90.00
2022-12-15T16:34:23.524Z,87.20
2022-12-15T16:35:23.531Z,92.00
2022-12-15T16:36:23.487Z,92.70
2022-12-15T16:37:23.512Z,83.50
2022-12-15T16:38:23.463Z,87.00
2022-12-15T16:39:23.496Z,93.60
2022-12-15T16:40:23.436Z,92.50
2022-12-15T16:41:23.470Z,89.10
2022-12-15T16:42:23.411Z,87.10
2022-12-15T16:43:23.420Z,85.10
2022-12-15T16:44:23.465Z,86.00
2022-12-15T16:45:23.398Z,86.20
2022-12-15T16:46:23.462Z,82.90
2022-12-15T16:47:23.363Z,89.60
2022-12-15T16:48:23.484Z,89.50
2022-12-15T16:49:23.349Z,85.90
2022-12-15T16:50:23.336Z,84.90
2022-12-15T16:51:23.334Z,89.50
2022-12-15T16:52:23.306Z,89.40
2022-12-15T16:53:23.310Z,85.80
2022-12-15T16:54:23.271Z,84.50
2022-12-15T16:55:23.306Z,82.40
2022-12-15T16:56:23.256Z,86.40
2022-12-15T16:57:23.269Z,88.50
2022-12-15T16:58:23.224Z,83.00
2022-12-15T16:59:33.105Z,84.40
2022-12-15T17:00:23.206Z,76.40
2022-12-15T17:01:23.304Z,85.60
2022-12-15T17:02:23.589Z,82.10
2022-12-15T17:03:23.523Z,83.40
2022-12-15T17:04:23.179Z,82.40
2022-12-15T17:05:23.139Z,81.80
2022-12-15T17:06:23.129Z,81.10
2022-12-15T17:07:23.166Z,77.60
2022-12-15T17:08:23.083Z,83.80
2022-12-15T17:09:23.092Z,85.30
2022-12-15T17:10:23.080Z,79.90
2022-12-15T17:11:23.080Z,80.10
2022-12-15T17:12:23.062Z,79.70
2022-12-15T17:13:23.042Z,79.80
2022-12-15T17:14:23.015Z,78.80
2022-12-15T17:15:23.015Z,79.50
2022-12-15T17:16:23.054Z,82.10
2022-12-15T17:17:23.047Z,80.60
2022-12-15T17:18:22.948Z,76.90
2022-12-15T17:19:22.968Z,72.00
2022-12-15T17:20:30.934Z,75.50
2022-12-15T17:21:22.988Z,76.10
2022-12-15T17:22:22.917Z,72.90
2022-12-15T17:23:22.970Z,76.40
2022-12-15T17:24:22.883Z,74.60
2022-12-15T17:25:37.441Z,71.60
2022-12-15T17:26:28.497Z,71.80
2022-12-15T17:27:22.895Z,70.10
2022-12-15T17:28:22.842Z,73.20
2022-12-15T17:29:22.921Z,75.00
2022-12-15T17:30:22.834Z,75.00
2022-12-15T17:31:22.907Z,72.30
2022-12-15T17:32:22.817Z,67.60
2022-12-15T17:33:22.826Z,70.70
2022-12-15T17:34:22.755Z,71.30
2022-12-15T17:35:22.771Z,71.20
2022-12-15T17:36:22.765Z,68.20
2022-12-15T17:37:22.761Z,70.90
2022-12-15T17:38:22.726Z,69.30
2022-12-15T17:39:22.741Z,68.60
2022-12-15T17:40:22.674Z,66.50
2022-12-15T17:41:50.359Z,63.90
2022-12-15T17:42:22.698Z,68.60